createdAt,value
2023-03-27T00:01:16.536Z,10.01
2023-03-27T00:03:43.417Z,10.02
2023-03-27T00:06:16.419Z,10.02
2023-03-27T00:08:44.928Z,10.02
2023-03-27T00:11:12.169Z,10.05
2023-03-27T00:13:49.163Z,10.10
2023-03-27T00:16:22.006Z,10.14
2023-03-27T00:18:48.910Z,10.12
2023-03-27T00:21:15.773Z,9.99
2023-03-27T00:23:42.520Z,9.85
2023-03-27T00:26:09.990Z,9.77
2023-03-27T00:28:36.708Z,9.72
2023-03-27T00:31:03.784Z,9.69
2023-03-27T00:33:30.776Z,9.67
2023-03-27T00:35:57.472Z,9.71
2023-03-27T00:38:24.583Z,9.78
2023-03-27T00:40:54.691Z,9.83
2023-03-27T00:43:27.994Z,9.87
2023-03-27T00:46:24.290Z,9.90
2023-03-27T00:48:52.736Z,9.88
2023-03-27T00:51:23.043Z,9.75
2023-03-27T00:53:51.635Z,9.54
2023-03-27T00:56:18.786Z,9.38
2023-03-27T00:59:00.255Z,9.35
2023-03-27T01:01:29.549Z,9.39
2023-03-27T01:04:01.060Z,9.46
2023-03-27T01:06:30.062Z,9.51
2023-03-27T01:08:57.176Z,9.56
2023-03-27T01:11:42.322Z,9.59
2023-03-27T01:14:08.952Z,9.62
2023-03-27T01:16:48.014Z,9.63
2023-03-27T01:19:53.508Z,9.62
2023-03-27T01:22:35.507Z,9.58
2023-03-27T01:25:27.514Z,9.52
2023-03-27T01:27:58.620Z,9.50
2023-03-27T01:30:30.857Z,9.50
2023-03-27T01:33:17.558Z,9.51
2023-03-27T01:35:53.672Z,9.51
2023-03-27T01:38:42.532Z,9.54
2023-03-27T01:41:30.260Z,9.55
2023-03-27T01:43:59.604Z,9.55
2023-03-27T01:46:32.437Z,9.59
2023-03-27T01:49:06.414Z,9.64
2023-03-27T01:51:37.065Z,9.71
2023-03-27T01:54:12.368Z,9.59
2023-03-27T01:56:53.914Z,9.29
2023-03-27T01:59:27.327Z,8.92
2023-03-27T02:02:17.472Z,8.82
2023-03-27T02:04:47.734Z,8.83
2023-03-27T02:07:20.580Z,8.87
2023-03-27T02:09:51.320Z,8.94
2023-03-27T02:12:31.062Z,8.90
2023-03-27T02:15:24.009Z,8.91
2023-03-27T02:18:05.541Z,8.98
2023-03-27T02:20:34.450Z,8.96
2023-03-27T02:23:02.104Z,8.92
2023-03-27T02:25:36.949Z,8.93
2023-03-27T02:28:15.651Z,8.97
2023-03-27T02:31:33.615Z,9.00
2023-03-27T02:34:33.909Z,9.01
2023-03-27T02:37:19.370Z,9.01
2023-03-27T02:40:06.565Z,9.04
2023-03-27T02:42:46.581Z,9.07
2023-03-27T02:45:24.123Z,9.11
2023-03-27T02:48:06.416Z,9.14
2023-03-27T02:50:44.484Z,9.13
2023-03-27T02:53:16.322Z,9.09
2023-03-27T02:55:50.181Z,9.06
2023-03-27T02:58:27.257Z,9.04
2023-03-27T03:01:02.455Z,9.04
2023-03-27T03:03:44.588Z,9.03
2023-03-27T03:06:34.621Z,9.01
2023-03-27T03:09:06.012Z,8.98
2023-03-27T03:11:38.535Z,8.95
2023-03-27T03:14:06.150Z,8.94
2023-03-27T03:16:33.574Z,8.94
2023-03-27T03:19:02.551Z,8.92
2023-03-27T03:21:30.190Z,8.78
2023-03-27T03:23:57.510Z,8.70
2023-03-27T03:26:27.186Z,8.70
2023-03-27T03:29:00.149Z,8.51
2023-03-27T03:31:43.288Z,8.42
2023-03-27T03:34:11.850Z,8.40
2023-03-27T03:36:38.596Z,8.40
2023-03-27T03:39:05.872Z,8.39
2023-03-27T03:41:32.773Z,8.42
2023-03-27T03:44:00.583Z,8.48
2023-03-27T03:46:27.648Z,8.53
2023-03-27T03:48:54.498Z,8.56
2023-03-27T03:51:21.252Z,8.57
2023-03-27T03:53:47.910Z,8.59
2023-03-27T03:56:15.173Z,8.60
2023-03-27T03:58:44.110Z,8.53
2023-03-27T04:01:11.145Z,8.45
2023-03-27T04:03:42.298Z,8.46
2023-03-27T04:06:11.030Z,8.49
2023-03-27T04:08:38.033Z,8.54
2023-03-27T04:11:05.390Z,8.58
2023-03-27T04:14:01.428Z,8.62
2023-03-27T04:16:34.094Z,8.67
2023-03-27T04:19:05.807Z,8.68
2023-03-27T04:21:33.398Z,8.65
2023-03-27T04:24:02.380Z,8.53
2023-03-27T04:26:40.728Z,8.41
2023-03-27T04:29:30.387Z,8.36
2023-03-27T04:32:00.862Z,8.30
2023-03-27T04:34:54.688Z,8.22
2023-03-27T04:37:41.818Z,8.23
2023-03-27T04:40:26.690Z,8.28
2023-03-27T04:42:56.045Z,8.19
2023-03-27T04:45:23.463Z,8.11
2023-03-27T04:47:50.626Z,8.11
2023-03-27T04:50:17.815Z,8.16
2023-03-27T04:52:44.959Z,8.21
2023-03-27T04:55:12.350Z,8.21
2023-03-27T04:57:41.785Z,8.13
2023-03-27T05:00:15.844Z,8.10
2023-03-27T05:02:48.709Z,8.12
2023-03-27T05:05:20.840Z,8.03
2023-03-27T05:07:49.730Z,7.98
2023-03-27T05:10:22.296Z,7.99
2023-03-27T05:12:51.519Z,7.96
2023-03-27T05:15:19.736Z,7.92
2023-03-27T05:17:54.544Z,7.94
2023-03-27T05:20:24.054Z,7.99
2023-03-27T05:22:55.454Z,8.03
2023-03-27T05:25:29.960Z,8.07
2023-03-27T05:27:57.264Z,8.10
2023-03-27T05:30:28.118Z,8.15
2023-03-27T05:33:16.447Z,8.19
2023-03-27T05:35:46.766Z,8.24
2023-03-27T05:38:14.250Z,8.32
2023-03-27T05:40:52.941Z,8.41
2023-03-27T05:43:21.345Z,8.50
2023-03-27T05:45:48.155Z,8.58
2023-03-27T05:48:15.056Z,8.63
2023-03-27T05:50:42.267Z,8.64
2023-03-27T05:53:20.857Z,8.63
2023-03-27T05:56:21.100Z,8.59
2023-03-27T05:58:53.328Z,8.61
2023-03-27T06:01:21.033Z,8.65
2023-03-27T06:03:50.221Z,8.70
2023-03-27T06:06:22.248Z,8.75
2023-03-27T06:08:53.538Z,8.81
2023-03-27T06:11:20.595Z,8.66
2023-03-27T06:13:48.278Z,8.57
2023-03-27T06:16:20.969Z,8.55
2023-03-27T06:18:59.865Z,8.31
2023-03-27T06:21:27.429Z,8.01
2023-03-27T06:23:58.540Z,7.78
2023-03-27T06:26:28.311Z,7.65
2023-03-27T06:28:55.360Z,7.64
2023-03-27T06:31:23.185Z,7.73
2023-03-27T06:34:04.344Z,7.84
2023-03-27T06:36:51.237Z,8.01
2023-03-27T06:39:17.864Z,8.21
2023-03-27T06:41:49.485Z,8.42
2023-03-27T06:44:25.557Z,8.65
2023-03-27T06:47:04.876Z,8.95
2023-03-27T06:49:54.749Z,9.31
2023-03-27T06:52:23.241Z,9.67
2023-03-27T06:54:49.984Z,9.93
2023-03-27T06:57:16.759Z,10.14
2023-03-27T06:59:49.195Z,10.37
2023-03-27T07:02:19.983Z,10.61
2023-03-27T07:04:57.789Z,10.90
2023-03-27T07:07:34.655Z,11.21
2023-03-27T07:10:01.994Z,11.48
2023-03-27T07:12:29.888Z,11.73
2023-03-27T07:14:56.535Z,11.95
2023-03-27T07:17:29.844Z,12.10
2023-03-27T07:20:06.437Z,12.22
2023-03-27T07:22:33.760Z,12.40
2023-03-27T07:25:05.131Z,12.56
2023-03-27T07:27:37.670Z,12.65
2023-03-27T07:30:07.976Z,12.77
2023-03-27T07:32:37.892Z,12.67
2023-03-27T07:35:06.435Z,12.66
2023-03-27T07:37:55.582Z,12.71
2023-03-27T07:40:40.157Z,12.95
2023-03-27T07:43:37.090Z,13.28
2023-03-27T07:46:06.447Z,13.54
2023-03-27T07:48:35.939Z,13.74
2023-03-27T07:51:13.286Z,13.57
2023-03-27T07:53:41.690Z,13.62
2023-03-27T07:56:14.345Z,13.84
2023-03-27T07:58:41.275Z,14.09
2023-03-27T08:01:07.999Z,14.22
2023-03-27T08:03:35.281Z,14.38
2023-03-27T08:06:02.791Z,14.43
2023-03-27T08:08:30.314Z,14.36
2023-03-27T08:11:01.037Z,14.21
2023-03-27T08:13:31.403Z,14.22
2023-03-27T08:16:03.879Z,14.33
2023-03-27T08:18:30.493Z,14.60
2023-03-27T08:20:58.449Z,14.88
2023-03-27T08:23:27.390Z,15.22
2023-03-27T08:26:14.714Z,15.52
2023-03-27T08:28:46.783Z,15.90
2023-03-27T08:31:16.083Z,16.15
2023-03-27T08:33:43.789Z,16.32
2023-03-27T08:36:14.891Z,16.23
2023-03-27T08:38:43.300Z,15.88
2023-03-27T08:41:27.307Z,15.79
2023-03-27T08:44:13.868Z,15.79
2023-03-27T08:46:46.909Z,15.77
2023-03-27T08:49:22.974Z,15.71
2023-03-27T08:52:15.835Z,15.76
2023-03-27T08:54:46.313Z,15.91
2023-03-27T08:57:23.517Z,15.97
2023-03-27T08:59:57.589Z,16.01
2023-03-27T09:02:38.755Z,15.92
2023-03-27T09:05:18.022Z,15.89
2023-03-27T09:08:07.412Z,16.22
2023-03-27T09:10:44.415Z,16.71
2023-03-27T09:13:34.917Z,17.15
2023-03-27T09:16:15.105Z,17.51
2023-03-27T09:19:04.463Z,17.81
2023-03-27T09:21:53.787Z,18.06
2023-03-27T09:24:42.080Z,18.08
2023-03-27T09:27:34.777Z,18.24
2023-03-27T09:30:32.733Z,18.50
2023-03-27T09:33:11.904Z,18.74
2023-03-27T09:35:42.243Z,18.99
2023-03-27T09:38:37.191Z,19.16
2023-03-27T09:41:15.636Z,19.30
2023-03-27T09:44:01.017Z,19.37
2023-03-27T09:46:29.198Z,19.44
2023-03-27T09:49:04.690Z,19.25
2023-03-27T09:51:50.216Z,19.34
2023-03-27T09:54:54.867Z,19.37
2023-03-27T09:57:39.696Z,19.43
2023-03-27T10:00:31.245Z,19.57
2023-03-27T10:03:04.164Z,19.56
2023-03-27T10:05:32.801Z,19.73
2023-03-27T10:08:01.024Z,19.71
2023-03-27T10:10:32.560Z,19.63
2023-03-27T10:13:04.444Z,19.47
2023-03-27T10:15:40.428Z,19.38
2023-03-27T10:18:28.090Z,19.51
2023-03-27T10:21:11.498Z,19.76
2023-03-27T10:23:49.445Z,19.70
2023-03-27T10:26:42.762Z,19.95
2023-03-27T10:29:30.294Z,20.10
2023-03-27T10:31:59.988Z,20.18
2023-03-27T10:35:00.210Z,20.35
2023-03-27T10:37:57.123Z,20.63
2023-03-27T10:40:49.813Z,20.58
2023-03-27T10:43:36.584Z,20.55
2023-03-27T10:46:09.880Z,20.35
2023-03-27T10:48:43.029Z,20.07
2023-03-27T10:51:45.461Z,20.00
2023-03-27T10:54:32.348Z,20.11
2023-03-27T10:57:11.547Z,20.23
2023-03-27T10:59:44.497Z,20.50
2023-03-27T11:02:32.577Z,20.75
2023-03-27T11:05:04.810Z,20.52
2023-03-27T11:07:40.898Z,20.55
2023-03-27T11:10:19.199Z,20.66
2023-03-27T11:12:55.912Z,20.80
2023-03-27T11:15:29.687Z,20.96
2023-03-27T11:18:25.796Z,21.30
2023-03-27T11:21:02.959Z,21.74
2023-03-27T11:23:42.637Z,22.05
2023-03-27T11:26:46.625Z,22.35
2023-03-27T11:29:34.181Z,22.58
2023-03-27T11:32:29.244Z,22.70
2023-03-27T11:35:04.250Z,22.91
2023-03-27T11:37:49.665Z,22.98
2023-03-27T11:40:35.032Z,23.04
2023-03-27T11:43:02.988Z,23.15
2023-03-27T11:45:42.270Z,23.29
2023-03-27T11:48:28.373Z,23.41
2023-03-27T11:51:05.555Z,23.50
2023-03-27T11:53:58.886Z,23.64
2023-03-27T11:56:54.572Z,23.68
2023-03-27T11:59:49.145Z,23.63
2023-03-27T12:02:46.627Z,23.60
2023-03-27T12:05:45.474Z,23.43
2023-03-27T12:08:43.086Z,23.22
2023-03-27T12:11:14.802Z,23.32
2023-03-27T12:14:18.447Z,23.48
2023-03-27T12:17:07.913Z,23.68
2023-03-27T12:20:27.406Z,23.75
2023-03-27T12:23:09.400Z,23.85
2023-03-27T12:25:56.198Z,24.01
2023-03-27T12:29:00.501Z,24.16
2023-03-27T12:31:40.159Z,24.25
2023-03-27T12:34:23.023Z,24.30
2023-03-27T12:36:52.410Z,24.29
2023-03-27T12:39:25.114Z,24.33
2023-03-27T12:41:53.624Z,24.38
2023-03-27T12:44:31.453Z,24.43
2023-03-27T12:47:24.522Z,24.43
2023-03-27T12:50:01.192Z,24.38
2023-03-27T12:52:33.980Z,24.48
2023-03-27T12:55:18.558Z,24.57
2023-03-27T12:58:29.141Z,24.63
2023-03-27T13:01:08.036Z,24.71
2023-03-27T13:04:07.582Z,24.71
2023-03-27T13:07:23.716Z,24.47
2023-03-27T13:10:49.586Z,23.82
2023-03-27T13:13:35.719Z,23.59
2023-03-27T13:16:11.966Z,23.71
2023-03-27T13:18:52.373Z,23.88
2023-03-27T13:21:39.115Z,23.91
2023-03-27T13:24:42.523Z,23.61
2023-03-27T13:27:39.673Z,23.15
2023-03-27T13:30:26.932Z,22.67
2023-03-27T13:33:30.155Z,22.24
2023-03-27T13:35:57.304Z,21.83
2023-03-27T13:38:45.965Z,21.51
2023-03-27T13:41:37.826Z,21.25
2023-03-27T13:44:34.221Z,20.97
2023-03-27T13:47:10.948Z,20.72
2023-03-27T13:50:15.882Z,20.53
2023-03-27T13:53:22.424Z,20.29
2023-03-27T13:56:32.534Z,20.07
2023-03-27T13:59:52.526Z,19.88
2023-03-27T14:02:32.447Z,19.74
2023-03-27T14:05:23.927Z,19.62
2023-03-27T14:08:09.238Z,19.51
2023-03-27T14:11:22.966Z,19.40
2023-03-27T14:13:58.060Z,19.37
2023-03-27T14:16:24.962Z,19.34
2023-03-27T14:19:15.552Z,19.36
2023-03-27T14:21:57.614Z,19.39
2023-03-27T14:24:50.359Z,19.40
2023-03-27T14:27:28.006Z,19.42
2023-03-27T14:30:26.336Z,19.48
2023-03-27T14:33:11.171Z,19.49
2023-03-27T14:35:44.516Z,19.45
2023-03-27T14:38:29.355Z,19.37
2023-03-27T14:41:02.306Z,19.28
2023-03-27T14:43:53.198Z,19.14
2023-03-27T14:46:22.844Z,19.03
2023-03-27T14:48:54.737Z,18.92
2023-03-27T14:51:33.836Z,18.88
2023-03-27T14:54:07.756Z,18.85
2023-03-27T14:56:47.757Z,18.86
2023-03-27T14:59:42.909Z,18.89
2023-03-27T15:02:20.292Z,18.92
2023-03-27T15:04:47.397Z,18.93
2023-03-27T15:07:28.825Z,18.96
2023-03-27T15:10:06.474Z,18.97
2023-03-27T15:12:52.763Z,18.98
2023-03-27T15:20:41.194Z,18.95
2023-03-27T15:23:30.545Z,18.90
2023-03-27T15:26:24.710Z,18.85
2023-03-27T15:29:04.170Z,18.80
2023-03-27T15:31:33.019Z,18.75
2023-03-27T15:34:34.428Z,18.73
2023-03-27T15:37:16.716Z,18.67
2023-03-27T15:40:13.702Z,18.65
2023-03-27T15:43:01.065Z,18.63
2023-03-27T15:45:43.977Z,18.64
2023-03-27T15:48:19.943Z,18.63
2023-03-27T15:51:27.970Z,18.62
2023-03-27T15:53:58.827Z,18.56
2023-03-27T15:56:43.652Z,18.52
2023-03-27T15:59:14.331Z,18.45
2023-03-27T16:01:52.206Z,18.41
2023-03-27T16:04:22.016Z,18.36
2023-03-27T16:06:54.745Z,18.29
2023-03-27T16:09:28.665Z,18.24
2023-03-27T16:11:57.716Z,18.19
2023-03-27T16:14:37.007Z,18.12
2023-03-27T16:17:14.741Z,18.05
2023-03-27T16:19:54.900Z,17.99
2023-03-27T16:22:23.709Z,17.92
2023-03-27T16:24:51.601Z,17.85
2023-03-27T16:27:22.983Z,17.78
2023-03-27T16:29:51.658Z,17.71
2023-03-27T16:32:21.059Z,17.65
2023-03-27T16:34:48.245Z,17.58
2023-03-27T16:37:15.791Z,17.53
2023-03-27T16:39:43.576Z,17.45
2023-03-27T16:42:13.360Z,17.38
2023-03-27T16:44:40.053Z,17.33
2023-03-27T16:47:06.724Z,17.28
2023-03-27T16:49:33.637Z,17.23
2023-03-27T16:52:00.386Z,17.19
2023-03-27T16:54:27.128Z,17.15
2023-03-27T16:56:54.097Z,17.10
2023-03-27T16:59:21.253Z,17.05
2023-03-27T17:01:48.128Z,17.00
2023-03-27T17:04:15.541Z,16.97
2023-03-27T17:06:42.159Z,16.92
2023-03-27T17:09:11.087Z,16.85
2023-03-27T17:11:37.705Z,16.78
2023-03-27T17:14:04.804Z,16.73
2023-03-27T17:16:32.171Z,16.67
2023-03-27T17:18:58.892Z,16.63
2023-03-27T17:21:27.090Z,16.58
2023-03-27T17:23:54.374Z,16.55
2023-03-27T17:26:27.121Z,16.51
2023-03-27T17:28:53.858Z,16.46
2023-03-27T17:31:21.104Z,16.42
2023-03-27T17:33:47.901Z,16.39
2023-03-27T17:36:21.641Z,16.35
2023-03-27T17:38:53.632Z,16.32
2023-03-27T17:41:20.736Z,16.29
2023-03-27T17:43:49.696Z,16.23
2023-03-27T17:46:16.321Z,16.15
2023-03-27T17:48:43.129Z,16.08
2023-03-27T17:51:10.798Z,16.00
2023-03-27T17:53:39.122Z,15.93
2023-03-27T17:56:06.373Z,15.83
2023-03-27T17:58:34.472Z,15.76
2023-03-27T18:01:11.440Z,15.69
2023-03-27T18:03:38.118Z,15.61
2023-03-27T18:06:05.333Z,15.55
2023-03-27T18:08:31.929Z,15.53
2023-03-27T18:10:58.671Z,15.49
2023-03-27T18:13:25.531Z,15.47
2023-03-27T18:15:56.871Z,15.43
2023-03-27T18:18:24.842Z,15.41
2023-03-27T18:20:53.438Z,15.38
2023-03-27T18:23:20.818Z,15.33
2023-03-27T18:25:47.888Z,15.28
2023-03-27T18:28:14.812Z,15.22
2023-03-27T18:30:42.729Z,15.15
2023-03-27T18:33:11.312Z,15.06
2023-03-27T18:35:39.458Z,14.94
2023-03-27T18:38:06.632Z,14.85
2023-03-27T18:40:33.661Z,14.74
2023-03-27T18:43:00.375Z,14.69
2023-03-27T18:45:27.019Z,14.65
2023-03-27T18:47:54.158Z,14.55
2023-03-27T18:50:20.870Z,14.33
2023-03-27T18:52:47.539Z,14.24
2023-03-27T18:55:15.006Z,14.18
2023-03-27T18:57:41.847Z,14.19
2023-03-27T19:00:09.264Z,14.09
2023-03-27T19:02:39.204Z,14.08
2023-03-27T19:05:06.447Z,14.08
2023-03-27T19:07:33.054Z,13.99
2023-03-27T19:09:59.844Z,13.92
2023-03-27T19:12:36.775Z,13.90
2023-03-27T19:15:33.031Z,13.88
2023-03-27T19:18:28.482Z,13.89
2023-03-27T19:21:24.451Z,13.83
2023-03-27T19:24:06.973Z,13.71
2023-03-27T19:26:40.244Z,13.57
2023-03-27T19:29:08.080Z,13.61
2023-03-27T19:31:36.082Z,13.64
2023-03-27T19:34:04.172Z,13.69
2023-03-27T19:36:33.293Z,13.70
2023-03-27T19:39:00.427Z,13.70
2023-03-27T19:41:27.512Z,13.68
2023-03-27T19:43:54.228Z,13.60
2023-03-27T19:46:23.244Z,13.56
2023-03-27T19:48:52.511Z,13.57
2023-03-27T19:51:31.063Z,13.53
2023-03-27T19:53:57.715Z,13.56
2023-03-27T19:56:26.750Z,13.59
2023-03-27T19:58:53.445Z,13.60
2023-03-27T20:01:20.250Z,13.55
2023-03-27T20:03:47.152Z,13.41
2023-03-27T20:06:19.736Z,13.24
2023-03-27T20:08:46.872Z,13.02
2023-03-27T20:11:15.139Z,12.96
2023-03-27T20:13:55.312Z,12.96
2023-03-27T20:16:27.881Z,12.86
2023-03-27T20:19:03.920Z,12.55
2023-03-27T20:21:37.642Z,12.64
2023-03-27T20:24:11.877Z,12.70
2023-03-27T20:26:42.201Z,12.77
2023-03-27T20:29:16.254Z,12.83
2023-03-27T20:31:44.169Z,12.84
2023-03-27T20:34:11.198Z,12.88
2023-03-27T20:36:39.295Z,12.94
2023-03-27T20:39:21.588Z,12.98
2023-03-27T20:41:49.195Z,13.02
2023-03-27T20:44:24.174Z,13.03
2023-03-27T20:46:56.903Z,13.03
2023-03-27T20:51:57.160Z,13.03
2023-03-27T20:54:23.750Z,13.02
2023-03-27T20:56:50.449Z,13.01
2023-03-27T20:59:17.268Z,12.97
2023-03-27T21:01:43.977Z,12.95
2023-03-27T21:04:12.523Z,12.93
2023-03-27T21:06:40.857Z,12.91
2023-03-27T21:09:09.288Z,12.88
2023-03-27T21:11:36.189Z,12.82
2023-03-27T21:14:02.929Z,12.73
2023-03-27T21:16:29.661Z,12.60
2023-03-27T21:18:56.416Z,12.54
2023-03-27T21:21:23.070Z,12.47
2023-03-27T21:23:51.492Z,12.44
2023-03-27T21:26:18.152Z,12.42
2023-03-27T21:28:44.818Z,12.39
2023-03-27T21:31:12.267Z,12.38
2023-03-27T21:33:38.885Z,12.39
2023-03-27T21:36:06.425Z,12.37
2023-03-27T21:38:33.084Z,12.34
2023-03-27T21:41:02.039Z,12.33
2023-03-27T21:43:29.530Z,12.31
2023-03-27T21:45:56.339Z,12.29
2023-03-27T21:48:22.996Z,12.29
2023-03-27T21:50:49.801Z,12.27
2023-03-27T21:53:17.165Z,12.24
2023-03-27T21:55:46.443Z,12.23
2023-03-27T21:58:13.132Z,12.25
2023-03-27T22:00:39.753Z,12.23
2023-03-27T22:03:06.828Z,12.24
2023-03-27T22:05:36.654Z,12.25
2023-03-27T22:08:03.682Z,12.25
2023-03-27T22:10:31.076Z,12.26
2023-03-27T22:12:59.437Z,12.27
2023-03-27T22:15:26.345Z,12.26
2023-03-27T22:17:53.002Z,12.25
2023-03-27T22:20:20.055Z,12.21
2023-03-27T22:22:46.715Z,12.19
2023-03-27T22:25:13.327Z,12.16
2023-03-27T22:27:40.792Z,12.14
2023-03-27T22:30:08.627Z,12.15
2023-03-27T22:32:35.362Z,12.16
2023-03-27T22:35:01.985Z,12.14
2023-03-27T22:37:31.006Z,12.12
2023-03-27T22:40:06.914Z,12.08
2023-03-27T22:42:34.160Z,12.06
2023-03-27T22:45:00.771Z,12.07
2023-03-27T22:47:27.665Z,12.05
2023-03-27T22:49:54.534Z,12.01
2023-03-27T22:52:21.155Z,11.99
2023-03-27T22:54:47.779Z,12.00
2023-03-27T22:57:14.537Z,11.99
2023-03-27T22:59:41.302Z,12.01
2023-03-27T23:02:08.338Z,12.01
2023-03-27T23:04:35.538Z,12.00
2023-03-27T23:07:02.513Z,11.99
2023-03-27T23:09:29.179Z,11.93
2023-03-27T23:11:56.226Z,11.87
2023-03-27T23:14:22.836Z,11.78
2023-03-27T23:16:49.499Z,11.72
2023-03-27T23:19:16.317Z,11.70
2023-03-27T23:21:42.919Z,11.70
2023-03-27T23:24:09.533Z,11.70
2023-03-27T23:26:36.119Z,11.68
2023-03-27T23:29:02.727Z,11.66
2023-03-27T23:31:29.455Z,11.64
2023-03-27T23:33:56.195Z,11.57
2023-03-27T23:36:26.043Z,11.42
2023-03-27T23:38:53.675Z,11.26
2023-03-27T23:41:20.922Z,11.16
2023-03-27T23:43:47.850Z,11.12
2023-03-27T23:46:15.614Z,11.08
2023-03-27T23:48:44.358Z,11.07
2023-03-27T23:51:12.547Z,11.09
2023-03-27T23:53:39.200Z,11.11
2023-03-27T23:56:06.873Z,11.15
2023-03-27T23:58:34.140Z,11.18
